createdAt,value
2022-11-05T00:00:46.493Z,6.20
2022-11-05T00:03:31.923Z,6.30
2022-11-05T00:06:19.635Z,6.20
2022-11-05T00:09:05.976Z,6.20
2022-11-05T00:11:51.909Z,6.30
2022-11-05T00:14:38.327Z,6.20
2022-11-05T00:17:06.990Z,6.20
2022-11-05T00:19:35.660Z,6.20
2022-11-05T00:22:23.531Z,6.10
2022-11-05T00:25:09.768Z,6.10
2022-11-05T00:27:38.455Z,6.10
2022-11-05T00:30:09.348Z,6.10
2022-11-05T00:32:38.620Z,6.00
2022-11-05T00:35:08.445Z,6.00
2022-11-05T00:37:38.519Z,6.00
2022-11-05T00:40:12.045Z,6.00
2022-11-05T00:43:00.543Z,5.90
2022-11-05T00:45:30.127Z,5.90
2022-11-05T00:48:16.491Z,5.90
2022-11-05T00:50:45.329Z,5.90
2022-11-05T00:53:15.375Z,5.90
2022-11-05T00:55:45.484Z,5.90
2022-11-05T00:58:15.474Z,5.90
2022-11-05T01:00:45.694Z,5.90
2022-11-05T01:03:16.299Z,5.90
2022-11-05T01:05:47.174Z,5.90
2022-11-05T01:08:19.182Z,5.90
2022-11-05T01:10:50.407Z,6.00
2022-11-05T01:13:20.694Z,6.00
2022-11-05T01:15:51.102Z,6.00
2022-11-05T01:18:20.597Z,6.10
2022-11-05T01:20:50.314Z,6.00
2022-11-05T01:23:21.148Z,6.00
2022-11-05T01:25:50.081Z,6.10
2022-11-05T01:28:18.672Z,6.10
2022-11-05T01:30:47.467Z,6.10
2022-11-05T01:33:16.050Z,6.10
2022-11-05T01:35:45.353Z,6.10
2022-11-05T01:38:14.550Z,6.10
2022-11-05T01:40:46.203Z,6.10
2022-11-05T01:43:19.541Z,6.10
2022-11-05T01:45:51.345Z,6.20
2022-11-05T01:48:22.930Z,6.20
2022-11-05T01:50:56.992Z,6.20
2022-11-05T01:53:31.213Z,6.20
2022-11-05T01:56:04.928Z,6.20
2022-11-05T01:58:37.918Z,6.20
2022-11-05T02:01:06.794Z,6.20
2022-11-05T02:03:36.792Z,6.30
2022-11-05T02:06:09.469Z,6.20
2022-11-05T02:08:56.239Z,6.20
2022-11-05T02:11:26.383Z,6.20
2022-11-05T02:13:55.046Z,6.20
2022-11-05T02:16:36.175Z,6.20
2022-11-05T02:19:25.922Z,6.10
2022-11-05T02:22:33.019Z,6.10
2022-11-05T02:25:26.658Z,6.10
2022-11-05T02:28:39.063Z,6.10
2022-11-05T02:31:14.287Z,6.10
2022-11-05T02:33:56.734Z,6.10
2022-11-05T02:36:40.340Z,6.10
2022-11-05T02:39:19.775Z,6.10
2022-11-05T02:41:59.300Z,6.10
2022-11-05T02:44:39.258Z,6.10
2022-11-05T02:47:18.302Z,6.20
2022-11-05T02:49:54.802Z,6.20
2022-11-05T02:52:30.122Z,6.20
2022-11-05T02:55:04.541Z,6.20
2022-11-05T02:57:36.798Z,6.30
2022-11-05T03:00:08.297Z,6.30
2022-11-05T03:02:38.710Z,6.30
2022-11-05T03:05:08.108Z,6.30
2022-11-05T03:07:48.589Z,6.30
2022-11-05T03:10:32.368Z,6.40
2022-11-05T03:13:11.541Z,6.40
2022-11-05T03:15:52.998Z,6.40
2022-11-05T03:18:31.720Z,6.30
2022-11-05T03:21:07.919Z,6.30
2022-11-05T03:23:43.553Z,6.30
2022-11-05T03:26:17.681Z,6.30
2022-11-05T03:28:50.656Z,6.30
2022-11-05T03:31:20.194Z,6.30
2022-11-05T03:33:51.985Z,6.30
2022-11-05T03:36:25.476Z,6.30
2022-11-05T03:38:57.498Z,6.20
2022-11-05T03:41:28.042Z,6.20
2022-11-05T03:43:59.950Z,6.20
2022-11-05T03:46:33.056Z,6.20
2022-11-05T03:49:05.575Z,6.30
2022-11-05T03:51:40.857Z,6.20
2022-11-05T03:54:10.345Z,6.20
2022-11-05T03:56:42.777Z,6.20
2022-11-05T03:59:12.529Z,6.20
2022-11-05T04:01:43.235Z,6.20
2022-11-05T04:04:13.540Z,6.20
2022-11-05T04:06:59.628Z,6.20
2022-11-05T04:09:46.168Z,6.20
2022-11-05T04:12:32.461Z,6.10
2022-11-05T04:15:01.031Z,6.10
2022-11-05T04:17:28.646Z,6.10
2022-11-05T04:20:16.233Z,6.10
2022-11-05T04:23:02.520Z,6.10
2022-11-05T04:25:31.133Z,6.00
2022-11-05T04:28:01.450Z,6.00
2022-11-05T04:30:29.254Z,6.00
2022-11-05T04:33:00.471Z,5.90
2022-11-05T04:35:32.691Z,5.90
2022-11-05T04:38:01.749Z,5.90
2022-11-05T04:40:31.546Z,5.80
2022-11-05T04:43:00.330Z,5.70
2022-11-05T04:45:31.047Z,5.60
2022-11-05T04:47:59.710Z,5.60
2022-11-05T04:50:28.741Z,5.60
2022-11-05T04:52:58.966Z,5.60
2022-11-05T04:55:27.812Z,5.70
2022-11-05T04:57:56.901Z,5.60
2022-11-05T05:00:25.911Z,5.70
2022-11-05T05:02:54.603Z,5.60
2022-11-05T05:05:23.304Z,5.60
2022-11-05T05:07:51.969Z,5.60
2022-11-05T05:10:22.014Z,5.60
2022-11-05T05:12:50.609Z,5.50
2022-11-05T05:15:19.505Z,5.50
2022-11-05T05:17:52.218Z,5.50
2022-11-05T05:20:38.450Z,5.50
2022-11-05T05:23:07.290Z,5.50
2022-11-05T05:25:37.384Z,5.40
2022-11-05T05:28:06.325Z,5.40
2022-11-05T05:30:35.070Z,5.30
2022-11-05T05:33:04.913Z,5.30
2022-11-05T05:35:33.697Z,5.30
2022-11-05T05:38:02.342Z,5.30
2022-11-05T05:40:31.045Z,5.30
2022-11-05T05:43:01.041Z,5.30
2022-11-05T05:45:29.945Z,5.30
2022-11-05T05:47:58.596Z,5.30
2022-11-05T05:50:27.264Z,5.20
2022-11-05T05:52:55.815Z,5.20
2022-11-05T05:55:24.531Z,5.20
2022-11-05T05:57:53.145Z,5.20
2022-11-05T06:00:23.555Z,5.10
2022-11-05T06:02:52.343Z,5.10
2022-11-05T06:05:20.935Z,5.10
2022-11-05T06:07:56.829Z,5.10
2022-11-05T06:10:26.276Z,5.10
2022-11-05T06:12:54.903Z,5.10
2022-11-05T06:15:24.881Z,5.10
2022-11-05T06:17:53.514Z,5.10
2022-11-05T06:20:22.293Z,5.00
2022-11-05T06:22:56.232Z,5.00
2022-11-05T06:25:24.958Z,5.00
2022-11-05T06:27:54.912Z,5.00
2022-11-05T06:30:27.091Z,4.90
2022-11-05T06:32:55.956Z,4.90
2022-11-05T06:35:24.493Z,4.80
2022-11-05T06:37:53.305Z,4.80
2022-11-05T06:40:21.933Z,4.80
2022-11-05T06:42:54.171Z,4.70
2022-11-05T06:45:22.890Z,4.70
2022-11-05T06:47:58.856Z,4.70
2022-11-05T06:50:28.851Z,4.80
2022-11-05T06:52:58.202Z,4.70
2022-11-05T06:55:28.912Z,4.70
2022-11-05T06:57:58.174Z,4.70
2022-11-05T07:00:27.046Z,4.70
2022-11-05T07:02:57.882Z,4.80
2022-11-05T07:05:27.181Z,4.80
2022-11-05T07:07:55.718Z,4.80
2022-11-05T07:10:25.582Z,4.80
2022-11-05T07:12:54.218Z,4.80
2022-11-05T07:15:22.866Z,4.80
2022-11-05T07:17:51.436Z,4.80
2022-11-05T07:20:21.696Z,4.80
2022-11-05T07:22:50.297Z,4.80
2022-11-05T07:25:19.139Z,4.80
2022-11-05T07:27:47.742Z,4.70
2022-11-05T07:30:17.492Z,4.80
2022-11-05T07:32:46.340Z,4.80
2022-11-05T07:35:14.994Z,4.70
2022-11-05T07:37:45.825Z,4.70
2022-11-05T07:40:15.809Z,4.70
2022-11-05T07:42:44.942Z,4.80
2022-11-05T07:45:14.106Z,4.80
2022-11-05T07:47:48.441Z,4.90
2022-11-05T07:50:17.801Z,4.90
2022-11-05T07:52:49.156Z,4.80
2022-11-05T07:55:18.360Z,4.80
2022-11-05T07:57:48.713Z,4.80
2022-11-05T08:00:20.108Z,4.70
2022-11-05T08:03:06.868Z,4.70
2022-11-05T08:05:38.248Z,4.80
2022-11-05T08:08:09.751Z,4.80
2022-11-05T08:10:39.957Z,4.80
2022-11-05T08:13:09.467Z,4.90
2022-11-05T08:15:38.343Z,4.90
2022-11-05T08:18:09.019Z,4.90
2022-11-05T08:20:38.625Z,4.90
2022-11-05T08:23:09.295Z,4.90
2022-11-05T08:25:38.323Z,4.90
2022-11-05T08:28:09.125Z,5.00
2022-11-05T08:30:37.943Z,5.00
2022-11-05T08:33:08.655Z,4.90
2022-11-05T08:35:38.316Z,4.90
2022-11-05T08:38:11.247Z,4.90
2022-11-05T08:40:42.460Z,5.00
2022-11-05T08:43:13.729Z,4.90
2022-11-05T08:45:43.194Z,5.00
2022-11-05T08:48:15.196Z,5.00
2022-11-05T08:50:44.901Z,5.00
2022-11-05T08:53:15.539Z,5.00
2022-11-05T08:55:46.538Z,4.90
2022-11-05T08:58:17.258Z,5.00
2022-11-05T09:00:48.435Z,5.00
2022-11-05T09:03:17.790Z,5.00
2022-11-05T09:05:46.556Z,5.10
2022-11-05T09:08:18.269Z,5.10
2022-11-05T09:10:49.898Z,5.10
2022-11-05T09:13:20.274Z,5.10
2022-11-05T09:15:50.120Z,5.10
2022-11-05T09:18:20.375Z,5.10
2022-11-05T09:20:49.542Z,5.10
2022-11-05T09:23:19.594Z,5.10
2022-11-05T09:25:48.875Z,5.20
2022-11-05T09:28:20.418Z,5.20
2022-11-05T09:30:50.930Z,5.20
2022-11-05T09:33:21.439Z,5.20
2022-11-05T09:35:50.188Z,5.20
2022-11-05T09:38:20.569Z,5.20
2022-11-05T09:40:57.605Z,5.30
2022-11-05T09:43:31.993Z,5.30
2022-11-05T09:46:05.290Z,5.30
2022-11-05T09:48:35.647Z,5.30
2022-11-05T09:51:06.859Z,5.30
2022-11-05T09:53:41.648Z,5.40
2022-11-05T09:56:21.917Z,5.40
2022-11-05T09:58:53.600Z,5.30
2022-11-05T10:01:26.624Z,5.30
2022-11-05T10:03:58.222Z,5.30
2022-11-05T10:06:28.845Z,5.30
2022-11-05T10:09:05.155Z,5.30
2022-11-05T10:11:38.452Z,5.30
2022-11-05T10:14:14.193Z,5.40
2022-11-05T10:16:47.335Z,5.40
2022-11-05T10:19:22.216Z,5.40
2022-11-05T10:22:06.149Z,5.40
2022-11-05T10:24:37.118Z,5.40
2022-11-05T10:27:06.773Z,5.40
2022-11-05T10:29:36.894Z,5.30
2022-11-05T10:32:08.124Z,5.30
2022-11-05T10:34:39.457Z,5.40
2022-11-05T10:37:08.178Z,5.50
2022-11-05T10:39:39.087Z,5.50
2022-11-05T10:42:35.034Z,5.50
2022-11-05T10:45:12.814Z,5.50
2022-11-05T10:47:52.844Z,5.50
2022-11-05T10:50:25.566Z,5.60
2022-11-05T10:52:59.546Z,5.60
2022-11-05T10:55:32.988Z,5.60
2022-11-05T10:58:19.660Z,5.60
2022-11-05T11:01:04.410Z,5.60
2022-11-05T11:03:44.639Z,5.60
2022-11-05T11:06:32.212Z,5.60
2022-11-05T11:09:03.532Z,5.60
2022-11-05T11:11:37.439Z,5.60
2022-11-05T11:14:19.322Z,5.60
2022-11-05T11:16:50.503Z,5.60
2022-11-05T11:19:27.909Z,5.50
2022-11-05T11:22:19.011Z,5.50
2022-11-05T11:24:50.124Z,5.60
2022-11-05T11:27:25.153Z,5.60
2022-11-05T11:29:59.442Z,5.70
2022-11-05T11:32:33.741Z,5.70
2022-11-05T11:35:05.129Z,5.70
2022-11-05T11:37:37.427Z,5.70
2022-11-05T11:40:17.630Z,5.70
2022-11-05T11:42:50.911Z,5.70
2022-11-05T11:45:24.482Z,5.70
2022-11-05T11:47:53.316Z,5.80
2022-11-05T11:50:38.263Z,5.80
2022-11-05T11:53:28.444Z,5.70
2022-11-05T11:56:03.313Z,5.70
2022-11-05T11:58:45.628Z,5.70
2022-11-05T12:01:53.270Z,5.80
2022-11-05T12:04:35.551Z,5.80
2022-11-05T12:07:15.476Z,5.80
2022-11-05T12:10:02.067Z,5.80
2022-11-05T12:12:39.090Z,5.80
2022-11-05T12:15:36.976Z,5.90
2022-11-05T12:18:07.912Z,5.80
2022-11-05T12:20:57.801Z,5.90
2022-11-05T12:23:44.098Z,5.90
2022-11-05T12:26:23.059Z,5.90
2022-11-05T12:29:18.508Z,5.90
2022-11-05T12:31:59.863Z,5.90
2022-11-05T12:34:42.899Z,5.90
2022-11-05T12:37:21.207Z,5.90
2022-11-05T12:40:00.342Z,5.90
2022-11-05T12:42:41.772Z,6.00
2022-11-05T12:45:24.085Z,6.00
2022-11-05T12:48:05.175Z,6.00
2022-11-05T12:50:41.260Z,6.00
2022-11-05T12:53:42.307Z,6.10
2022-11-05T12:56:16.460Z,6.10
2022-11-05T12:58:52.452Z,6.10
2022-11-05T13:01:32.484Z,6.00
2022-11-05T13:04:08.917Z,6.10
2022-11-05T13:06:42.054Z,6.10
2022-11-05T13:09:15.900Z,6.10
2022-11-05T13:11:53.005Z,6.10
2022-11-05T13:14:27.050Z,6.10
2022-11-05T13:16:59.899Z,6.10
2022-11-05T13:19:34.795Z,6.10
2022-11-05T13:22:09.860Z,6.10
2022-11-05T13:24:41.732Z,6.10
2022-11-05T13:27:24.549Z,6.10
2022-11-05T13:29:57.238Z,6.10
2022-11-05T13:32:31.088Z,6.20
2022-11-05T13:35:04.037Z,6.20
2022-11-05T13:37:54.340Z,6.20
2022-11-05T13:40:33.675Z,6.20
2022-11-05T13:43:24.044Z,6.20
2022-11-05T13:46:10.895Z,6.20
2022-11-05T13:48:59.003Z,6.20
2022-11-05T13:52:02.170Z,6.20
2022-11-05T13:54:57.492Z,6.20
2022-11-05T13:57:56.333Z,6.20
2022-11-05T14:00:27.220Z,6.20
2022-11-05T14:02:58.251Z,6.20
2022-11-05T14:05:31.181Z,6.20
2022-11-05T14:08:09.038Z,6.30
2022-11-05T14:10:40.371Z,6.30
2022-11-05T14:13:21.043Z,6.20
2022-11-05T14:16:04.517Z,6.20
2022-11-05T14:18:40.395Z,6.20
2022-11-05T14:21:48.113Z,6.20
2022-11-05T14:24:43.185Z,6.20
2022-11-05T14:27:34.574Z,6.20
2022-11-05T14:30:41.625Z,6.30
2022-11-05T14:33:34.194Z,6.30
2022-11-05T14:36:37.151Z,6.20
2022-11-05T14:39:21.205Z,6.20
2022-11-05T14:42:04.593Z,6.20
2022-11-05T14:44:36.264Z,6.20
2022-11-05T14:47:09.157Z,6.20
2022-11-05T14:49:53.115Z,6.20
2022-11-05T14:52:22.440Z,6.20
2022-11-05T14:54:54.924Z,6.20
2022-11-05T14:57:56.591Z,6.20
2022-11-05T15:00:46.068Z,6.20
2022-11-05T15:03:47.477Z,6.10
2022-11-05T15:06:26.246Z,6.10
2022-11-05T15:09:09.642Z,6.10
2022-11-05T15:11:40.990Z,6.10
2022-11-05T15:14:21.521Z,6.10
2022-11-05T15:16:54.465Z,6.10
2022-11-05T15:19:27.299Z,6.10
2022-11-05T15:21:58.610Z,6.10
2022-11-05T15:24:29.344Z,6.00
2022-11-05T15:27:04.811Z,6.00
2022-11-05T15:29:34.362Z,6.00
2022-11-05T15:32:07.023Z,6.00
2022-11-05T15:34:36.869Z,6.00
2022-11-05T15:37:25.203Z,6.10
2022-11-05T15:39:55.415Z,6.00
2022-11-05T15:42:25.547Z,6.00
2022-11-05T15:44:56.381Z,6.00
2022-11-05T15:47:28.540Z,6.00
2022-11-05T15:50:01.485Z,6.00
2022-11-05T15:52:36.547Z,6.00
2022-11-05T15:55:18.500Z,6.00
2022-11-05T15:57:50.959Z,6.00
2022-11-05T16:00:22.548Z,6.00
2022-11-05T16:02:57.336Z,6.00
2022-11-05T16:05:28.409Z,6.00
2022-11-05T16:08:00.240Z,6.00
2022-11-05T16:10:32.076Z,6.00
2022-11-05T16:13:24.896Z,6.00
2022-11-05T16:15:57.987Z,6.00
2022-11-05T16:18:33.787Z,6.00
2022-11-05T16:21:06.104Z,6.00
2022-11-05T16:23:47.175Z,6.00
2022-11-05T16:27:01.387Z,6.10
2022-11-05T16:29:29.226Z,6.10
2022-11-05T16:32:00.013Z,6.00
2022-11-05T16:34:34.856Z,6.10
2022-11-05T16:37:04.483Z,6.10
2022-11-05T16:39:33.255Z,6.10
2022-11-05T16:42:02.037Z,6.00
2022-11-05T16:44:30.637Z,6.00
2022-11-05T16:46:59.550Z,6.00
2022-11-05T16:49:29.940Z,6.00
2022-11-05T16:52:01.305Z,6.00
2022-11-05T16:54:30.057Z,6.00
2022-11-05T16:56:58.785Z,6.00
2022-11-05T16:59:28.848Z,6.00
2022-11-05T17:01:58.664Z,6.00
2022-11-05T17:04:28.520Z,5.90
2022-11-05T17:06:59.153Z,5.90
2022-11-05T17:09:28.607Z,5.90
2022-11-05T17:11:57.639Z,5.90
2022-11-05T17:14:27.023Z,5.90
2022-11-05T17:16:55.942Z,5.90
2022-11-05T17:19:24.600Z,5.90
2022-11-05T17:21:53.284Z,5.90
2022-11-05T17:24:23.457Z,6.00
2022-11-05T17:26:52.138Z,5.90
2022-11-05T17:29:20.612Z,5.90
2022-11-05T17:31:49.585Z,5.90
2022-11-05T17:34:18.157Z,5.90
2022-11-05T17:36:46.810Z,5.90
2022-11-05T17:39:15.366Z,5.90
2022-11-05T17:41:45.734Z,5.90
2022-11-05T17:44:14.345Z,5.90
2022-11-05T17:46:42.885Z,5.90
2022-11-05T17:49:11.509Z,5.90
2022-11-05T17:51:40.118Z,5.90
2022-11-05T17:54:08.794Z,5.90
2022-11-05T17:56:44.449Z,5.80
2022-11-05T17:59:15.392Z,5.80
2022-11-05T18:01:46.071Z,5.80
2022-11-05T18:04:14.882Z,5.80
2022-11-05T18:06:43.645Z,5.90
2022-11-05T18:09:14.084Z,5.80
2022-11-05T18:11:43.628Z,5.80
2022-11-05T18:14:15.396Z,5.90
2022-11-05T18:16:48.470Z,5.80
2022-11-05T18:19:17.692Z,5.80
2022-11-05T18:21:47.437Z,5.80
2022-11-05T18:24:16.059Z,5.90
2022-11-05T18:26:44.556Z,5.90
2022-11-05T18:29:14.578Z,5.90
2022-11-05T18:31:43.376Z,5.80
2022-11-05T18:34:12.022Z,5.80
2022-11-05T18:36:41.062Z,5.80
2022-11-05T18:39:09.809Z,5.80
2022-11-05T18:41:39.744Z,5.80
2022-11-05T18:44:08.662Z,5.80
2022-11-05T18:49:27.561Z,5.90
2022-11-05T18:51:56.311Z,5.80
2022-11-05T18:54:25.065Z,5.90
2022-11-05T18:56:53.659Z,5.80
2022-11-05T18:59:36.914Z,5.80
2022-11-05T19:02:09.612Z,5.80
2022-11-05T19:04:38.850Z,5.80
2022-11-05T19:07:08.487Z,5.80
2022-11-05T19:09:37.690Z,5.80
2022-11-05T19:12:07.894Z,5.70
2022-11-05T19:14:37.454Z,5.80
2022-11-05T19:17:07.692Z,5.80
2022-11-05T19:19:36.283Z,5.80
2022-11-05T19:22:06.237Z,5.80
2022-11-05T19:24:34.867Z,5.80
2022-11-05T19:27:03.437Z,5.80
2022-11-05T19:29:32.074Z,5.90
2022-11-05T19:32:00.953Z,5.90
2022-11-05T19:34:31.096Z,5.90
2022-11-05T19:37:00.453Z,5.90
2022-11-05T19:39:29.594Z,5.90
2022-11-05T19:42:04.056Z,6.00
2022-11-05T19:44:34.993Z,6.00
2022-11-05T19:47:04.168Z,6.00
2022-11-05T19:49:34.416Z,6.00
2022-11-05T19:52:04.143Z,6.00
2022-11-05T19:54:35.914Z,6.00
2022-11-05T19:57:06.977Z,6.00
2022-11-05T19:59:35.932Z,6.00
2022-11-05T20:02:05.799Z,6.00
2022-11-05T20:04:36.847Z,6.00
2022-11-05T20:07:06.193Z,6.00
2022-11-05T20:09:36.394Z,6.10
2022-11-05T20:12:05.616Z,6.10
2022-11-05T20:14:35.120Z,6.10
2022-11-05T20:17:03.872Z,6.10
2022-11-05T20:19:32.442Z,6.10
2022-11-05T20:22:02.969Z,6.10
2022-11-05T20:24:32.148Z,6.10
2022-11-05T20:27:00.874Z,6.10
2022-11-05T20:29:35.362Z,6.10
2022-11-05T20:32:08.480Z,6.10
2022-11-05T20:34:37.324Z,6.10
2022-11-05T20:37:07.321Z,6.10
2022-11-05T20:39:36.043Z,6.10
2022-11-05T20:42:05.217Z,6.10
2022-11-05T20:44:33.847Z,6.10
2022-11-05T20:47:02.694Z,6.10
2022-11-05T20:49:31.608Z,6.10
2022-11-05T20:52:00.220Z,6.10
2022-11-05T20:54:30.715Z,6.10
2022-11-05T20:56:59.389Z,6.10
2022-11-05T20:59:28.657Z,6.10
2022-11-05T21:01:57.729Z,6.10
2022-11-05T21:04:26.534Z,6.10
2022-11-05T21:06:55.366Z,6.10
2022-11-05T21:09:24.070Z,6.20
2022-11-05T21:12:13.537Z,6.20
2022-11-05T21:14:43.962Z,6.10
2022-11-05T21:17:13.686Z,6.10
2022-11-05T21:19:42.373Z,6.20
2022-11-05T21:22:15.381Z,6.10
2022-11-05T21:24:44.549Z,6.10
2022-11-05T21:27:14.465Z,6.10
2022-11-05T21:29:43.058Z,6.10
2022-11-05T21:32:11.804Z,6.10
2022-11-05T21:34:40.562Z,6.20
2022-11-05T21:37:09.225Z,6.10
2022-11-05T21:39:38.124Z,6.10
2022-11-05T21:42:06.941Z,6.10
2022-11-05T21:44:36.953Z,6.10
2022-11-05T21:47:05.884Z,6.10
2022-11-05T21:49:35.971Z,6.20
2022-11-05T21:52:22.682Z,6.10
2022-11-05T21:55:08.983Z,6.10
2022-11-05T21:57:55.154Z,6.20
2022-11-05T22:00:26.056Z,6.20
2022-11-05T22:02:55.281Z,6.20
2022-11-05T22:05:24.192Z,6.20
2022-11-05T22:07:53.189Z,6.20
2022-11-05T22:10:22.154Z,6.20
2022-11-05T22:12:50.859Z,6.20
2022-11-05T22:15:20.027Z,6.20
2022-11-05T22:17:53.044Z,6.20
2022-11-05T22:20:22.285Z,6.20
2022-11-05T22:22:51.893Z,6.20
2022-11-05T22:25:22.258Z,6.20
2022-11-05T22:27:51.328Z,6.20
2022-11-05T22:30:22.063Z,6.20
2022-11-05T22:32:53.782Z,6.20
2022-11-05T22:35:25.053Z,6.20
2022-11-05T22:37:53.840Z,6.20
2022-11-05T22:40:24.131Z,6.20
2022-11-05T22:42:53.668Z,6.20
2022-11-05T22:45:22.281Z,6.30
2022-11-05T22:47:52.371Z,6.20
2022-11-05T22:50:21.279Z,6.20
2022-11-05T22:52:49.843Z,6.20
2022-11-05T22:55:18.661Z,6.20
2022-11-05T22:57:47.223Z,6.20
2022-11-05T23:00:18.539Z,6.20
2022-11-05T23:02:47.383Z,6.30
2022-11-05T23:05:17.882Z,6.30
2022-11-05T23:08:03.697Z,6.30
2022-11-05T23:10:50.870Z,6.30
2022-11-05T23:13:19.590Z,6.30
2022-11-05T23:16:05.490Z,6.30
2022-11-05T23:18:51.777Z,6.30
2022-11-05T23:21:40.159Z,6.30
2022-11-05T23:24:08.989Z,6.30
2022-11-05T23:26:52.406Z,6.30
2022-11-05T23:29:22.557Z,6.30
2022-11-05T23:32:09.172Z,6.30
2022-11-05T23:34:38.270Z,6.30
2022-11-05T23:37:25.979Z,6.40
2022-11-05T23:39:54.995Z,6.40
2022-11-05T23:42:40.994Z,6.40
2022-11-05T23:45:33.296Z,6.40
2022-11-05T23:48:20.274Z,6.30
2022-11-05T23:50:52.975Z,6.30
2022-11-05T23:53:24.451Z,6.30
2022-11-05T23:55:53.347Z,6.40
2022-11-05T23:58:22.082Z,6.40
